sensor_id;sensor_type;location;lat;lon;timestamp;P1;durP1;ratioP1;P2;durP2;ratioP2
36189;SDS011;22232;50.914;13.858;2023-07-13T00:02:24;2.22;;;1.95;;
36189;SDS011;22232;50.914;13.858;2023-07-13T00:04:54;2.58;;;2.05;;
36189;SDS011;22232;50.914;13.858;2023-07-13T00:07:21;4.00;;;2.13;;
36189;SDS011;22232;50.914;13.858;2023-07-13T00:09:51;1.90;;;1.75;;
36189;SDS011;22232;50.914;13.858;2023-07-13T00:12:23;3.63;;;2.05;;
36189;SDS011;22232;50.914;13.858;2023-07-13T00:14:59;3.05;;;1.80;;
36189;SDS011;22232;50.914;13.858;2023-07-13T00:17:28;2.03;;;1.60;;
36189;SDS011;22232;50.914;13.858;2023-07-13T00:19:56;1.88;;;1.65;;
36189;SDS011;22232;50.914;13.858;2023-07-13T00:22:24;3.28;;;1.58;;
36189;SDS011;22232;50.914;13.858;2023-07-13T00:24:53;2.28;;;1.58;;
36189;SDS011;22232;50.914;13.858;2023-07-13T00:27:24;4.47;;;2.25;;
36189;SDS011;22232;50.914;13.858;2023-07-13T00:29:53;10.38;;;2.78;;
36189;SDS011;22232;50.914;13.858;2023-07-13T00:32:21;3.00;;;2.63;;
36189;SDS011;22232;50.914;13.858;2023-07-13T00:34:49;2.50;;;2.28;;
36189;SDS011;22232;50.914;13.858;2023-07-13T00:37:18;4.82;;;2.67;;
36189;SDS011;22232;50.914;13.858;2023-07-13T00:39:46;2.80;;;2.33;;
36189;SDS011;22232;50.914;13.858;2023-07-13T00:42:14;6.05;;;2.88;;
36189;SDS011;22232;50.914;13.858;2023-07-13T00:45:00;5.22;;;3.00;;
36189;SDS011;22232;50.914;13.858;2023-07-13T00:47:48;4.50;;;2.70;;
36189;SDS011;22232;50.914;13.858;2023-07-13T00:50:16;4.22;;;3.03;;
36189;SDS011;22232;50.914;13.858;2023-07-13T00:52:46;3.38;;;2.55;;
36189;SDS011;22232;50.914;13.858;2023-07-13T00:55:16;5.60;;;2.67;;
36189;SDS011;22232;50.914;13.858;2023-07-13T00:57:44;3.15;;;2.60;;
36189;SDS011;22232;50.914;13.858;2023-07-13T01:00:12;8.10;;;3.17;;
36189;SDS011;22232;50.914;13.858;2023-07-13T01:02:41;4.03;;;2.35;;
36189;SDS011;22232;50.914;13.858;2023-07-13T01:05:12;5.80;;;2.55;;
36189;SDS011;22232;50.914;13.858;2023-07-13T01:07:42;5.25;;;2.75;;
36189;SDS011;22232;50.914;13.858;2023-07-13T01:10:11;3.60;;;3.05;;
36189;SDS011;22232;50.914;13.858;2023-07-13T01:12:40;4.15;;;2.85;;
36189;SDS011;22232;50.914;13.858;2023-07-13T01:18:15;6.28;;;3.55;;
36189;SDS011;22232;50.914;13.858;2023-07-13T01:20:50;4.20;;;3.13;;
36189;SDS011;22232;50.914;13.858;2023-07-13T01:23:18;5.10;;;2.92;;
36189;SDS011;22232;50.914;13.858;2023-07-13T01:25:48;4.43;;;3.03;;
36189;SDS011;22232;50.914;13.858;2023-07-13T01:28:16;5.35;;;3.17;;
36189;SDS011;22232;50.914;13.858;2023-07-13T01:30:47;5.50;;;2.85;;
36189;SDS011;22232;50.914;13.858;2023-07-13T01:33:16;3.72;;;2.58;;
36189;SDS011;22232;50.914;13.858;2023-07-13T01:35:45;5.43;;;2.63;;
36189;SDS011;22232;50.914;13.858;2023-07-13T01:38:16;4.90;;;3.15;;
36189;SDS011;22232;50.914;13.858;2023-07-13T01:40:45;4.90;;;2.70;;
36189;SDS011;22232;50.914;13.858;2023-07-13T01:43:13;4.35;;;3.00;;
36189;SDS011;22232;50.914;13.858;2023-07-13T01:45:41;7.95;;;3.08;;
36189;SDS011;22232;50.914;13.858;2023-07-13T01:48:12;4.90;;;3.08;;
36189;SDS011;22232;50.914;13.858;2023-07-13T01:50:43;3.80;;;3.28;;
36189;SDS011;22232;50.914;13.858;2023-07-13T01:53:11;5.63;;;3.33;;
36189;SDS011;22232;50.914;13.858;2023-07-13T01:55:39;4.07;;;3.28;;
36189;SDS011;22232;50.914;13.858;2023-07-13T01:58:07;3.53;;;2.92;;
36189;SDS011;22232;50.914;13.858;2023-07-13T02:00:35;4.25;;;2.78;;
36189;SDS011;22232;50.914;13.858;2023-07-13T02:03:03;3.33;;;2.90;;
36189;SDS011;22232;50.914;13.858;2023-07-13T02:05:31;4.65;;;2.65;;
36189;SDS011;22232;50.914;13.858;2023-07-13T02:07:59;5.07;;;3.17;;
36189;SDS011;22232;50.914;13.858;2023-07-13T02:10:27;3.15;;;2.80;;
36189;SDS011;22232;50.914;13.858;2023-07-13T02:12:55;4.60;;;3.25;;
36189;SDS011;22232;50.914;13.858;2023-07-13T02:15:23;4.82;;;3.30;;
36189;SDS011;22232;50.914;13.858;2023-07-13T02:17:50;6.13;;;2.90;;
36189;SDS011;22232;50.914;13.858;2023-07-13T02:20:18;3.00;;;2.70;;
36189;SDS011;22232;50.914;13.858;2023-07-13T02:22:46;5.45;;;3.40;;
36189;SDS011;22232;50.914;13.858;2023-07-13T02:25:13;5.03;;;3.47;;
36189;SDS011;22232;50.914;13.858;2023-07-13T02:27:41;3.92;;;3.05;;
36189;SDS011;22232;50.914;13.858;2023-07-13T02:30:10;6.68;;;3.55;;
36189;SDS011;22232;50.914;13.858;2023-07-13T02:32:38;4.45;;;3.30;;
36189;SDS011;22232;50.914;13.858;2023-07-13T02:35:06;4.18;;;3.00;;
36189;SDS011;22232;50.914;13.858;2023-07-13T02:37:33;3.88;;;3.30;;
36189;SDS011;22232;50.914;13.858;2023-07-13T02:40:02;3.85;;;3.42;;
36189;SDS011;22232;50.914;13.858;2023-07-13T02:45:06;5.50;;;2.90;;
36189;SDS011;22232;50.914;13.858;2023-07-13T02:47:35;5.70;;;3.00;;
36189;SDS011;22232;50.914;13.858;2023-07-13T02:50:03;7.65;;;3.20;;
36189;SDS011;22232;50.914;13.858;2023-07-13T02:52:31;4.38;;;3.10;;
36189;SDS011;22232;50.914;13.858;2023-07-13T02:54:59;5.75;;;3.35;;
36189;SDS011;22232;50.914;13.858;2023-07-13T02:57:27;3.80;;;3.40;;
36189;SDS011;22232;50.914;13.858;2023-07-13T02:59:55;4.43;;;2.85;;
36189;SDS011;22232;50.914;13.858;2023-07-13T03:02:23;7.82;;;3.35;;
36189;SDS011;22232;50.914;13.858;2023-07-13T03:04:52;3.55;;;2.90;;
36189;SDS011;22232;50.914;13.858;2023-07-13T03:07:20;4.40;;;2.72;;
36189;SDS011;22232;50.914;13.858;2023-07-13T03:09:53;5.65;;;2.70;;
36189;SDS011;22232;50.914;13.858;2023-07-13T03:14:52;3.30;;;2.95;;
36189;SDS011;22232;50.914;13.858;2023-07-13T03:17:20;2.72;;;2.40;;
36189;SDS011;22232;50.914;13.858;2023-07-13T03:19:48;2.80;;;2.60;;
36189;SDS011;22232;50.914;13.858;2023-07-13T03:22:19;3.92;;;2.97;;
36189;SDS011;22232;50.914;13.858;2023-07-13T03:24:47;4.35;;;3.08;;
36189;SDS011;22232;50.914;13.858;2023-07-13T03:27:16;5.15;;;2.60;;
36189;SDS011;22232;50.914;13.858;2023-07-13T03:29:47;3.25;;;2.95;;
36189;SDS011;22232;50.914;13.858;2023-07-13T03:32:17;3.97;;;3.05;;
36189;SDS011;22232;50.914;13.858;2023-07-13T03:34:44;3.92;;;2.72;;
36189;SDS011;22232;50.914;13.858;2023-07-13T03:37:13;4.05;;;2.60;;
36189;SDS011;22232;50.914;13.858;2023-07-13T03:39:41;3.03;;;2.65;;
36189;SDS011;22232;50.914;13.858;2023-07-13T03:42:09;4.82;;;3.35;;
36189;SDS011;22232;50.914;13.858;2023-07-13T03:44:39;3.85;;;2.75;;
36189;SDS011;22232;50.914;13.858;2023-07-13T03:47:08;3.47;;;2.75;;
36189;SDS011;22232;50.914;13.858;2023-07-13T03:49:36;3.55;;;3.15;;
36189;SDS011;22232;50.914;13.858;2023-07-13T03:52:04;3.75;;;3.00;;
36189;SDS011;22232;50.914;13.858;2023-07-13T03:54:32;3.10;;;2.72;;
36189;SDS011;22232;50.914;13.858;2023-07-13T03:57:01;4.10;;;2.80;;
36189;SDS011;22232;50.914;13.858;2023-07-13T03:59:32;4.30;;;2.70;;
36189;SDS011;22232;50.914;13.858;2023-07-13T04:02:01;2.83;;;2.42;;
36189;SDS011;22232;50.914;13.858;2023-07-13T04:04:33;4.20;;;2.83;;
36189;SDS011;22232;50.914;13.858;2023-07-13T04:07:01;6.13;;;3.03;;
36189;SDS011;22232;50.914;13.858;2023-07-13T04:09:28;3.97;;;2.75;;
36189;SDS011;22232;50.914;13.858;2023-07-13T04:11:56;4.82;;;2.80;;
36189;SDS011;22232;50.914;13.858;2023-07-13T04:14:23;4.32;;;2.95;;
36189;SDS011;22232;50.914;13.858;2023-07-13T04:16:51;3.28;;;2.97;;
36189;SDS011;22232;50.914;13.858;2023-07-13T04:19:19;3.95;;;3.08;;
36189;SDS011;22232;50.914;13.858;2023-07-13T04:21:47;3.67;;;2.70;;
36189;SDS011;22232;50.914;13.858;2023-07-13T04:24:15;3.55;;;3.03;;
36189;SDS011;22232;50.914;13.858;2023-07-13T04:26:43;2.85;;;2.60;;
36189;SDS011;22232;50.914;13.858;2023-07-13T04:29:11;3.45;;;2.95;;
36189;SDS011;22232;50.914;13.858;2023-07-13T04:31:38;4.10;;;2.70;;
36189;SDS011;22232;50.914;13.858;2023-07-13T04:34:06;3.50;;;2.80;;
36189;SDS011;22232;50.914;13.858;2023-07-13T04:36:33;4.47;;;2.65;;
36189;SDS011;22232;50.914;13.858;2023-07-13T04:39:04;3.10;;;2.75;;
36189;SDS011;22232;50.914;13.858;2023-07-13T04:41:32;7.40;;;2.92;;
36189;SDS011;22232;50.914;13.858;2023-07-13T04:44:00;5.68;;;3.42;;
36189;SDS011;22232;50.914;13.858;2023-07-13T04:46:27;4.22;;;3.05;;
36189;SDS011;22232;50.914;13.858;2023-07-13T04:48:55;3.15;;;2.80;;
36189;SDS011;22232;50.914;13.858;2023-07-13T04:51:24;3.10;;;2.55;;
36189;SDS011;22232;50.914;13.858;2023-07-13T04:53:52;3.88;;;3.00;;
36189;SDS011;22232;50.914;13.858;2023-07-13T04:56:26;3.15;;;2.65;;
36189;SDS011;22232;50.914;13.858;2023-07-13T04:58:54;5.78;;;3.22;;
36189;SDS011;22232;50.914;13.858;2023-07-13T05:01:22;6.03;;;3.20;;
36189;SDS011;22232;50.914;13.858;2023-07-13T05:03:49;3.38;;;2.63;;
36189;SDS011;22232;50.914;13.858;2023-07-13T05:06:17;5.10;;;3.03;;
36189;SDS011;22232;50.914;13.858;2023-07-13T05:08:44;6.53;;;2.95;;
36189;SDS011;22232;50.914;13.858;2023-07-13T05:11:12;4.50;;;3.20;;
36189;SDS011;22232;50.914;13.858;2023-07-13T05:13:40;4.95;;;2.88;;
36189;SDS011;22232;50.914;13.858;2023-07-13T05:16:08;6.18;;;3.00;;
36189;SDS011;22232;50.914;13.858;2023-07-13T05:18:36;5.20;;;3.08;;
36189;SDS011;22232;50.914;13.858;2023-07-13T05:21:08;6.30;;;2.80;;
36189;SDS011;22232;50.914;13.858;2023-07-13T05:23:38;3.47;;;2.97;;
36189;SDS011;22232;50.914;13.858;2023-07-13T05:26:07;4.03;;;3.40;;
36189;SDS011;22232;50.914;13.858;2023-07-13T05:28:36;4.95;;;3.13;;
36189;SDS011;22232;50.914;13.858;2023-07-13T05:31:05;5.43;;;3.05;;
36189;SDS011;22232;50.914;13.858;2023-07-13T05:33:35;4.53;;;3.30;;
36189;SDS011;22232;50.914;13.858;2023-07-13T05:36:03;5.18;;;3.03;;
36189;SDS011;22232;50.914;13.858;2023-07-13T05:38:31;5.00;;;2.70;;
36189;SDS011;22232;50.914;13.858;2023-07-13T05:40:59;6.72;;;3.10;;
36189;SDS011;22232;50.914;13.858;2023-07-13T05:43:31;4.40;;;2.42;;
36189;SDS011;22232;50.914;13.858;2023-07-13T05:45:59;4.65;;;2.60;;
36189;SDS011;22232;50.914;13.858;2023-07-13T05:48:26;4.93;;;2.63;;
36189;SDS011;22232;50.914;13.858;2023-07-13T05:50:54;5.63;;;2.85;;
36189;SDS011;22232;50.914;13.858;2023-07-13T05:53:22;4.70;;;2.67;;
36189;SDS011;22232;50.914;13.858;2023-07-13T05:55:49;5.88;;;2.58;;
36189;SDS011;22232;50.914;13.858;2023-07-13T05:58:18;3.00;;;2.70;;
36189;SDS011;22232;50.914;13.858;2023-07-13T06:00:46;3.65;;;2.25;;
36189;SDS011;22232;50.914;13.858;2023-07-13T06:03:15;4.32;;;2.63;;
36189;SDS011;22232;50.914;13.858;2023-07-13T06:05:42;3.88;;;2.58;;
36189;SDS011;22232;50.914;13.858;2023-07-13T06:08:10;2.75;;;2.55;;
36189;SDS011;22232;50.914;13.858;2023-07-13T06:10:38;4.18;;;2.65;;
36189;SDS011;22232;50.914;13.858;2023-07-13T06:13:06;7.53;;;2.90;;
36189;SDS011;22232;50.914;13.858;2023-07-13T06:15:33;3.03;;;2.72;;
36189;SDS011;22232;50.914;13.858;2023-07-13T06:18:01;3.00;;;2.33;;
36189;SDS011;22232;50.914;13.858;2023-07-13T06:20:30;4.10;;;2.20;;
36189;SDS011;22232;50.914;13.858;2023-07-13T06:23:01;4.60;;;2.35;;
36189;SDS011;22232;50.914;13.858;2023-07-13T06:25:29;4.05;;;2.45;;
36189;SDS011;22232;50.914;13.858;2023-07-13T06:27:56;5.65;;;2.00;;
36189;SDS011;22232;50.914;13.858;2023-07-13T06:30:24;5.65;;;2.35;;
36189;SDS011;22232;50.914;13.858;2023-07-13T06:32:52;2.50;;;2.25;;
36189;SDS011;22232;50.914;13.858;2023-07-13T06:35:19;2.88;;;2.38;;
36189;SDS011;22232;50.914;13.858;2023-07-13T06:37:47;4.38;;;2.05;;
36189;SDS011;22232;50.914;13.858;2023-07-13T06:40:14;6.60;;;2.10;;
36189;SDS011;22232;50.914;13.858;2023-07-13T06:42:42;2.88;;;2.00;;
36189;SDS011;22232;50.914;13.858;2023-07-13T06:45:10;5.50;;;1.92;;
36189;SDS011;22232;50.914;13.858;2023-07-13T06:47:37;3.85;;;2.28;;
36189;SDS011;22232;50.914;13.858;2023-07-13T06:50:05;6.15;;;2.50;;
36189;SDS011;22232;50.914;13.858;2023-07-13T06:52:33;3.15;;;2.00;;
36189;SDS011;22232;50.914;13.858;2023-07-13T06:55:01;4.65;;;2.38;;
36189;SDS011;22232;50.914;13.858;2023-07-13T06:57:28;5.45;;;2.60;;
36189;SDS011;22232;50.914;13.858;2023-07-13T06:59:56;6.35;;;2.33;;
36189;SDS011;22232;50.914;13.858;2023-07-13T07:02:24;3.13;;;2.00;;
36189;SDS011;22232;50.914;13.858;2023-07-13T07:04:52;3.47;;;2.00;;
36189;SDS011;22232;50.914;13.858;2023-07-13T07:07:23;3.35;;;1.83;;
36189;SDS011;22232;50.914;13.858;2023-07-13T07:09:51;3.33;;;1.90;;
36189;SDS011;22232;50.914;13.858;2023-07-13T07:12:19;2.50;;;2.00;;
36189;SDS011;22232;50.914;13.858;2023-07-13T07:14:46;5.10;;;1.80;;
36189;SDS011;22232;50.914;13.858;2023-07-13T07:17:14;3.53;;;1.88;;
36189;SDS011;22232;50.914;13.858;2023-07-13T07:19:42;2.70;;;1.95;;
36189;SDS011;22232;50.914;13.858;2023-07-13T07:22:09;4.10;;;2.10;;
36189;SDS011;22232;50.914;13.858;2023-07-13T07:24:37;2.60;;;2.00;;
36189;SDS011;22232;50.914;13.858;2023-07-13T07:27:04;5.28;;;2.22;;
36189;SDS011;22232;50.914;13.858;2023-07-13T07:29:35;3.47;;;1.95;;
36189;SDS011;22232;50.914;13.858;2023-07-13T07:32:05;4.38;;;2.00;;
36189;SDS011;22232;50.914;13.858;2023-07-13T07:34:44;2.35;;;1.80;;
36189;SDS011;22232;50.914;13.858;2023-07-13T07:37:12;3.78;;;2.20;;
36189;SDS011;22232;50.914;13.858;2023-07-13T07:39:44;6.50;;;2.13;;
36189;SDS011;22232;50.914;13.858;2023-07-13T07:42:32;3.15;;;2.00;;
36189;SDS011;22232;50.914;13.858;2023-07-13T07:44:59;5.70;;;1.88;;
36189;SDS011;22232;50.914;13.858;2023-07-13T07:47:28;3.45;;;1.75;;
36189;SDS011;22232;50.914;13.858;2023-07-13T07:49:56;5.22;;;2.40;;
36189;SDS011;22232;50.914;13.858;2023-07-13T07:52:24;3.17;;;1.90;;
36189;SDS011;22232;50.914;13.858;2023-07-13T07:54:52;4.30;;;2.13;;
36189;SDS011;22232;50.914;13.858;2023-07-13T07:57:22;4.55;;;1.73;;
36189;SDS011;22232;50.914;13.858;2023-07-13T07:59:53;2.50;;;1.40;;
36189;SDS011;22232;50.914;13.858;2023-07-13T08:02:24;6.28;;;1.88;;
36189;SDS011;22232;50.914;13.858;2023-07-13T08:04:55;4.30;;;1.70;;
36189;SDS011;22232;50.914;13.858;2023-07-13T08:07:25;2.70;;;1.75;;
36189;SDS011;22232;50.914;13.858;2023-07-13T08:09:53;4.30;;;1.60;;
36189;SDS011;22232;50.914;13.858;2023-07-13T08:12:21;5.00;;;1.50;;
36189;SDS011;22232;50.914;13.858;2023-07-13T08:14:52;2.47;;;1.30;;
36189;SDS011;22232;50.914;13.858;2023-07-13T08:17:20;3.08;;;1.50;;
36189;SDS011;22232;50.914;13.858;2023-07-13T08:19:48;4.05;;;1.77;;
36189;SDS011;22232;50.914;13.858;2023-07-13T08:22:16;4.72;;;2.00;;
36189;SDS011;22232;50.914;13.858;2023-07-13T08:24:43;3.72;;;1.65;;
36189;SDS011;22232;50.914;13.858;2023-07-13T08:27:11;4.20;;;1.85;;
36189;SDS011;22232;50.914;13.858;2023-07-13T08:29:39;4.22;;;1.60;;
36189;SDS011;22232;50.914;13.858;2023-07-13T08:32:07;3.17;;;1.73;;
36189;SDS011;22232;50.914;13.858;2023-07-13T08:34:36;4.47;;;1.45;;
36189;SDS011;22232;50.914;13.858;2023-07-13T08:37:04;3.28;;;1.92;;
36189;SDS011;22232;50.914;13.858;2023-07-13T08:39:32;4.20;;;1.80;;
36189;SDS011;22232;50.914;13.858;2023-07-13T08:42:05;8.18;;;2.00;;
36189;SDS011;22232;50.914;13.858;2023-07-13T08:46:07;4.03;;;1.73;;
36189;SDS011;22232;50.914;13.858;2023-07-13T08:50:45;3.15;;;1.67;;
36189;SDS011;22232;50.914;13.858;2023-07-13T08:53:33;3.60;;;1.38;;
36189;SDS011;22232;50.914;13.858;2023-07-13T08:56:07;2.90;;;1.50;;
36189;SDS011;22232;50.914;13.858;2023-07-13T08:58:44;3.72;;;1.98;;
36189;SDS011;22232;50.914;13.858;2023-07-13T09:01:18;3.42;;;1.98;;
36189;SDS011;22232;50.914;13.858;2023-07-13T09:15:31;7.00;;;2.10;;
36189;SDS011;22232;50.914;13.858;2023-07-13T09:18:08;4.75;;;2.00;;
36189;SDS011;22232;50.914;13.858;2023-07-13T09:20:46;3.58;;;1.67;;
36189;SDS011;22232;50.914;13.858;2023-07-13T09:23:20;3.88;;;2.05;;
36189;SDS011;22232;50.914;13.858;2023-07-13T09:25:51;2.85;;;1.40;;
36189;SDS011;22232;50.914;13.858;2023-07-13T09:28:26;3.25;;;1.50;;
36189;SDS011;22232;50.914;13.858;2023-07-13T09:33:56;5.63;;;1.90;;
36189;SDS011;22232;50.914;13.858;2023-07-13T09:36:29;3.05;;;1.60;;
36189;SDS011;22232;50.914;13.858;2023-07-13T09:39:13;4.78;;;1.67;;
36189;SDS011;22232;50.914;13.858;2023-07-13T09:41:47;4.10;;;1.70;;
36189;SDS011;22232;50.914;13.858;2023-07-13T09:44:56;2.95;;;1.40;;
36189;SDS011;22232;50.914;13.858;2023-07-13T09:47:15;3.37;;;1.27;;
36189;SDS011;22232;50.914;13.858;2023-07-13T09:49:45;3.50;;;1.33;;
36189;SDS011;22232;50.914;13.858;2023-07-13T09:52:15;3.33;;;1.55;;
36189;SDS011;22232;50.914;13.858;2023-07-13T09:54:51;3.40;;;1.50;;
36189;SDS011;22232;50.914;13.858;2023-07-13T09:57:23;3.15;;;1.58;;
36189;SDS011;22232;50.914;13.858;2023-07-13T10:00:18;2.50;;;1.60;;
36189;SDS011;22232;50.914;13.858;2023-07-13T10:05:42;3.22;;;1.35;;
36189;SDS011;22232;50.914;13.858;2023-07-13T10:08:19;2.53;;;1.55;;
36189;SDS011;22232;50.914;13.858;2023-07-13T10:10:57;3.55;;;1.48;;
36189;SDS011;22232;50.914;13.858;2023-07-13T10:13:28;3.10;;;1.42;;
36189;SDS011;22232;50.914;13.858;2023-07-13T10:15:58;3.13;;;1.65;;
36189;SDS011;22232;50.914;13.858;2023-07-13T10:18:27;2.97;;;1.13;;
36189;SDS011;22232;50.914;13.858;2023-07-13T10:21:16;2.38;;;1.38;;
36189;SDS011;22232;50.914;13.858;2023-07-13T10:24:22;2.75;;;1.33;;
36189;SDS011;22232;50.914;13.858;2023-07-13T10:26:52;2.75;;;1.40;;
36189;SDS011;22232;50.914;13.858;2023-07-13T10:29:25;3.90;;;1.35;;
36189;SDS011;22232;50.914;13.858;2023-07-13T10:31:56;1.40;;;1.30;;
36189;SDS011;22232;50.914;13.858;2023-07-13T10:34:24;4.05;;;1.33;;
36189;SDS011;22232;50.914;13.858;2023-07-13T10:36:52;4.30;;;1.27;;
36189;SDS011;22232;50.914;13.858;2023-07-13T10:39:24;2.20;;;1.23;;
36189;SDS011;22232;50.914;13.858;2023-07-13T10:42:04;2.65;;;1.48;;
36189;SDS011;22232;50.914;13.858;2023-07-13T10:44:42;2.03;;;1.30;;
36189;SDS011;22232;50.914;13.858;2023-07-13T10:47:14;2.90;;;1.20;;
36189;SDS011;22232;50.914;13.858;2023-07-13T10:49:45;5.53;;;1.40;;
36189;SDS011;22232;50.914;13.858;2023-07-13T10:55:33;3.30;;;1.63;;
36189;SDS011;22232;50.914;13.858;2023-07-13T10:58:12;3.75;;;1.55;;
36189;SDS011;22232;50.914;13.858;2023-07-13T11:01:27;3.95;;;1.50;;
36189;SDS011;22232;50.914;13.858;2023-07-13T11:03:36;5.15;;;1.40;;
36189;SDS011;22232;50.914;13.858;2023-07-13T11:06:17;2.60;;;1.60;;
36189;SDS011;22232;50.914;13.858;2023-07-13T11:08:53;2.88;;;1.70;;
36189;SDS011;22232;50.914;13.858;2023-07-13T11:13:59;3.17;;;1.30;;
36189;SDS011;22232;50.914;13.858;2023-07-13T11:16:42;3.22;;;1.38;;
36189;SDS011;22232;50.914;13.858;2023-07-13T11:27:51;2.83;;;1.48;;
36189;SDS011;22232;50.914;13.858;2023-07-13T11:30:34;3.92;;;1.20;;
36189;SDS011;22232;50.914;13.858;2023-07-13T11:34:09;3.95;;;1.35;;
36189;SDS011;22232;50.914;13.858;2023-07-13T11:36:23;4.15;;;1.40;;
36189;SDS011;22232;50.914;13.858;2023-07-13T11:38:56;4.97;;;1.10;;
36189;SDS011;22232;50.914;13.858;2023-07-13T11:41:32;3.08;;;1.38;;
36189;SDS011;22232;50.914;13.858;2023-07-13T11:44:21;5.68;;;1.40;;
36189;SDS011;22232;50.914;13.858;2023-07-13T11:46:52;4.30;;;1.45;;
36189;SDS011;22232;50.914;13.858;2023-07-13T11:49:23;5.00;;;1.17;;
36189;SDS011;22232;50.914;13.858;2023-07-13T11:51:52;3.03;;;1.38;;
36189;SDS011;22232;50.914;13.858;2023-07-13T11:54:28;2.88;;;1.30;;
36189;SDS011;22232;50.914;13.858;2023-07-13T11:57:01;2.45;;;1.10;;
36189;SDS011;22232;50.914;13.858;2023-07-13T11:59:50;4.75;;;1.95;;
36189;SDS011;22232;50.914;13.858;2023-07-13T12:02:27;2.47;;;1.30;;
36189;SDS011;22232;50.914;13.858;2023-07-13T12:05:01;2.28;;;1.15;;
36189;SDS011;22232;50.914;13.858;2023-07-13T12:07:31;1.70;;;1.13;;
36189;SDS011;22232;50.914;13.858;2023-07-13T12:10:01;3.22;;;1.70;;
36189;SDS011;22232;50.914;13.858;2023-07-13T12:12:31;4.45;;;1.60;;
36189;SDS011;22232;50.914;13.858;2023-07-13T12:14:59;4.32;;;1.50;;
36189;SDS011;22232;50.914;13.858;2023-07-13T12:17:26;2.00;;;1.20;;
36189;SDS011;22232;50.914;13.858;2023-07-13T12:19:55;4.90;;;1.40;;
36189;SDS011;22232;50.914;13.858;2023-07-13T12:22:23;3.58;;;1.20;;
36189;SDS011;22232;50.914;13.858;2023-07-13T12:24:51;5.05;;;1.80;;
36189;SDS011;22232;50.914;13.858;2023-07-13T12:27:21;3.53;;;1.80;;
36189;SDS011;22232;50.914;13.858;2023-07-13T12:29:51;2.28;;;1.30;;
36189;SDS011;22232;50.914;13.858;2023-07-13T12:32:26;4.70;;;1.75;;
36189;SDS011;22232;50.914;13.858;2023-07-13T12:34:55;3.13;;;1.27;;
36189;SDS011;22232;50.914;13.858;2023-07-13T12:37:24;3.58;;;1.58;;
36189;SDS011;22232;50.914;13.858;2023-07-13T12:39:52;2.95;;;1.60;;
36189;SDS011;22232;50.914;13.858;2023-07-13T12:45:01;4.35;;;1.60;;
36189;SDS011;22232;50.914;13.858;2023-07-13T12:47:39;2.90;;;1.63;;
36189;SDS011;22232;50.914;13.858;2023-07-13T12:50:14;2.78;;;1.20;;
36189;SDS011;22232;50.914;13.858;2023-07-13T12:52:44;3.13;;;1.40;;
36189;SDS011;22232;50.914;13.858;2023-07-13T12:55:19;6.53;;;1.40;;
36189;SDS011;22232;50.914;13.858;2023-07-13T12:57:52;2.38;;;1.42;;
36189;SDS011;22232;50.914;13.858;2023-07-13T13:00:32;3.08;;;1.30;;
36189;SDS011;22232;50.914;13.858;2023-07-13T13:03:18;3.72;;;1.40;;
36189;SDS011;22232;50.914;13.858;2023-07-13T13:06:00;2.67;;;1.38;;
36189;SDS011;22232;50.914;13.858;2023-07-13T13:08:57;6.32;;;1.40;;
36189;SDS011;22232;50.914;13.858;2023-07-13T13:11:31;3.25;;;1.65;;
36189;SDS011;22232;50.914;13.858;2023-07-13T13:13:59;4.57;;;1.33;;
36189;SDS011;22232;50.914;13.858;2023-07-13T13:19:15;4.07;;;1.50;;
36189;SDS011;22232;50.914;13.858;2023-07-13T13:21:45;2.92;;;1.35;;
36189;SDS011;22232;50.914;13.858;2023-07-13T13:24:14;2.65;;;1.27;;
36189;SDS011;22232;50.914;13.858;2023-07-13T13:26:50;4.40;;;1.75;;
36189;SDS011;22232;50.914;13.858;2023-07-13T13:29:20;4.68;;;1.70;;
36189;SDS011;22232;50.914;13.858;2023-07-13T13:31:52;4.50;;;1.63;;
36189;SDS011;22232;50.914;13.858;2023-07-13T13:34:21;5.60;;;2.10;;
36189;SDS011;22232;50.914;13.858;2023-07-13T13:36:53;4.82;;;1.52;;
36189;SDS011;22232;50.914;13.858;2023-07-13T13:39:33;4.43;;;1.80;;
36189;SDS011;22232;50.914;13.858;2023-07-13T13:42:02;4.78;;;1.50;;
36189;SDS011;22232;50.914;13.858;2023-07-13T13:44:30;1.80;;;1.35;;
36189;SDS011;22232;50.914;13.858;2023-07-13T13:46:57;3.50;;;1.50;;
36189;SDS011;22232;50.914;13.858;2023-07-13T13:49:26;4.28;;;1.88;;
36189;SDS011;22232;50.914;13.858;2023-07-13T13:51:54;6.57;;;1.52;;
36189;SDS011;22232;50.914;13.858;2023-07-13T13:54:23;5.70;;;1.60;;
36189;SDS011;22232;50.914;13.858;2023-07-13T13:56:52;5.18;;;1.70;;
36189;SDS011;22232;50.914;13.858;2023-07-13T13:59:20;6.65;;;1.52;;
36189;SDS011;22232;50.914;13.858;2023-07-13T14:01:48;4.35;;;1.77;;
36189;SDS011;22232;50.914;13.858;2023-07-13T14:04:20;3.85;;;1.40;;
36189;SDS011;22232;50.914;13.858;2023-07-13T14:06:49;3.28;;;1.45;;
36189;SDS011;22232;50.914;13.858;2023-07-13T14:09:18;2.58;;;1.40;;
36189;SDS011;22232;50.914;13.858;2023-07-13T14:11:47;4.68;;;2.28;;
36189;SDS011;22232;50.914;13.858;2023-07-13T14:14:19;5.28;;;1.77;;
36189;SDS011;22232;50.914;13.858;2023-07-13T14:16:49;2.80;;;1.35;;
36189;SDS011;22232;50.914;13.858;2023-07-13T14:19:22;5.25;;;1.30;;
36189;SDS011;22232;50.914;13.858;2023-07-13T14:21:51;3.13;;;1.40;;
36189;SDS011;22232;50.914;13.858;2023-07-13T14:24:21;3.00;;;1.30;;
36189;SDS011;22232;50.914;13.858;2023-07-13T14:26:49;2.50;;;1.30;;
36189;SDS011;22232;50.914;13.858;2023-07-13T14:29:18;2.35;;;1.30;;
36189;SDS011;22232;50.914;13.858;2023-07-13T14:31:50;3.70;;;1.60;;
36189;SDS011;22232;50.914;13.858;2023-07-13T14:34:18;3.22;;;1.40;;
36189;SDS011;22232;50.914;13.858;2023-07-13T14:36:49;6.25;;;1.58;;
36189;SDS011;22232;50.914;13.858;2023-07-13T14:39:19;4.22;;;1.20;;
36189;SDS011;22232;50.914;13.858;2023-07-13T14:41:52;3.80;;;1.58;;
36189;SDS011;22232;50.914;13.858;2023-07-13T14:44:24;8.15;;;1.65;;
36189;SDS011;22232;50.914;13.858;2023-07-13T14:46:59;4.05;;;1.40;;
36189;SDS011;22232;50.914;13.858;2023-07-13T14:49:32;4.55;;;1.38;;
36189;SDS011;22232;50.914;13.858;2023-07-13T14:52:09;1.42;;;1.30;;
36189;SDS011;22232;50.914;13.858;2023-07-13T14:54:40;4.05;;;1.63;;
36189;SDS011;22232;50.914;13.858;2023-07-13T14:57:12;4.65;;;1.30;;
36189;SDS011;22232;50.914;13.858;2023-07-13T14:59:44;6.25;;;1.50;;
36189;SDS011;22232;50.914;13.858;2023-07-13T15:02:16;2.75;;;1.38;;
36189;SDS011;22232;50.914;13.858;2023-07-13T15:04:48;4.63;;;1.60;;
36189;SDS011;22232;50.914;13.858;2023-07-13T15:07:16;4.68;;;1.40;;
36189;SDS011;22232;50.914;13.858;2023-07-13T15:09:46;3.17;;;1.58;;
36189;SDS011;22232;50.914;13.858;2023-07-13T15:12:14;5.20;;;1.60;;
36189;SDS011;22232;50.914;13.858;2023-07-13T15:14:42;3.75;;;1.80;;
36189;SDS011;22232;50.914;13.858;2023-07-13T15:17:18;5.20;;;1.67;;
36189;SDS011;22232;50.914;13.858;2023-07-13T15:19:53;4.10;;;1.50;;
36189;SDS011;22232;50.914;13.858;2023-07-13T15:22:26;4.38;;;1.50;;
36189;SDS011;22232;50.914;13.858;2023-07-13T15:24:53;2.88;;;1.42;;
36189;SDS011;22232;50.914;13.858;2023-07-13T15:27:26;4.22;;;1.48;;
36189;SDS011;22232;50.914;13.858;2023-07-13T15:29:54;2.67;;;1.40;;
36189;SDS011;22232;50.914;13.858;2023-07-13T15:32:21;3.33;;;1.40;;
36189;SDS011;22232;50.914;13.858;2023-07-13T15:34:50;3.63;;;1.40;;
36189;SDS011;22232;50.914;13.858;2023-07-13T15:37:18;2.67;;;1.65;;
36189;SDS011;22232;50.914;13.858;2023-07-13T15:39:47;4.60;;;1.42;;
36189;SDS011;22232;50.914;13.858;2023-07-13T15:42:15;6.53;;;1.48;;
36189;SDS011;22232;50.914;13.858;2023-07-13T15:44:45;6.32;;;1.63;;